Time;durP1;ratioP1;P1;durP2;ratioP2;P2;SDS_P1;SDS_P2;PMS_P1;PMS_P2;Temp;Humidity;BMP_temperature;BMP_pressure;BME280_temperature;BME280_humidity;BME280_pressure;Samples;Min_cycle;Max_cycle;Signal;HPM_P1;HPM_P2
2021/06/08 04:16:38;;;;;;;57.53;40.03;;;;;;;16.59;100.00;99228.22;5408722;23;20367;-75
2021/06/08 04:19:09;;;;;;;57.85;39.65;;;;;;;16.59;100.00;99230.00;4974832;28;20042;-75
2021/06/08 04:21:35;;;;;;;54.08;39.85;;;;;;;16.53;100.00;99228.44;4974965;28;20403;-75
2021/06/08 04:24:03;;;;;;;54.30;38.60;;;;;;;16.57;100.00;99230.03;4974826;28;20019;-75
2021/06/08 04:26:28;;;;;;;59.97;39.53;;;;;;;16.67;100.00;99228.78;4974413;28;20499;-75
2021/06/08 04:28:55;;;;;;;58.03;39.67;;;;;;;16.69;99.80;99236.63;4974565;28;20027;-75
2021/06/08 04:31:21;;;;;;;58.28;40.03;;;;;;;16.57;100.00;99239.66;4974769;28;20026;-71
2021/06/08 04:33:48;;;;;;;54.08;37.67;;;;;;;16.61;100.00;99231.63;4974619;28;20027;-72
2021/06/08 04:36:14;;;;;;;53.47;38.05;;;;;;;16.81;99.12;99230.94;4961054;28;20047;-71
2021/06/08 04:38:40;;;;;;;52.38;37.22;;;;;;;16.89;98.06;99235.94;4955230;28;20038;-70
2021/06/08 04:41:06;;;;;;;52.83;36.22;;;;;;;16.89;97.68;99234.16;4955075;28;20023;-72
2021/06/08 04:43:31;;;;;;;54.42;36.20;;;;;;;16.98;97.72;99237.38;4955043;28;20481;-71
2021/06/08 04:46:05;;;;;;;50.58;35.20;;;;;;;16.86;97.62;99233.41;4954845;28;20035;-71
2021/06/08 04:48:30;;;;;;;55.22;37.72;;;;;;;16.87;98.05;99233.34;4954893;28;20563;-71
2021/06/08 04:50:56;;;;;;;53.85;35.88;;;;;;;17.00;97.40;99236.38;4954708;28;20098;-70
2021/06/08 04:53:22;;;;;;;52.53;35.65;;;;;;;17.07;96.62;99232.63;4953785;28;20042;-71
2021/06/08 04:55:48;;;;;;;55.55;36.13;;;;;;;17.00;97.08;99240.75;4953314;28;20035;-71
2021/06/08 04:58:28;;;;;;;50.05;37.08;;;;;;;16.85;97.67;99234.31;4931826;28;20058;-70
2021/06/08 05:00:56;;;;;;;52.05;36.40;;;;;;;16.84;98.27;99230.00;4954673;28;20027;-71
2021/06/08 05:03:29;;;;;;;59.25;38.45;;;;;;;16.75;98.82;99230.34;4954657;28;20031;-71
2021/06/08 05:05:57;;;;;;;57.03;36.63;;;;;;;17.15;97.07;99224.47;4954787;28;20535;-71
2021/06/08 05:08:49;;;;;;;52.38;36.67;;;;;;;16.93;97.69;99227.91;4954468;28;20031;-70
2021/06/08 05:11:21;;;;;;;62.70;44.40;;;;;;;17.00;97.03;99236.38;4954468;28;20476;-70
2021/06/08 05:13:52;;;;;;;52.42;34.90;;;;;;;16.99;97.28;99239.06;4954819;28;20493;-70
2021/06/08 05:16:19;;;;;;;54.13;38.58;;;;;;;16.92;98.44;99241.03;4954090;28;20089;-71
2021/06/08 05:18:48;;;;;;;59.13;40.15;;;;;;;16.87;98.64;99230.72;4954410;28;20034;-70
2021/06/08 05:21:16;;;;;;;56.10;38.25;;;;;;;16.87;98.48;99235.09;4954211;28;20024;-71
2021/06/08 05:23:42;;;;;;;57.88;39.30;;;;;;;16.84;98.68;99240.47;4954274;28;20116;-71
2021/06/08 05:26:10;;;;;;;58.90;39.72;;;;;;;16.87;98.67;99230.72;4954079;28;20031;-71
2021/06/08 05:28:39;;;;;;;61.60;38.20;;;;;;;16.90;98.55;99240.25;4954322;28;20027;-71
2021/06/08 05:31:04;;;;;;;51.38;36.88;;;;;;;16.91;98.59;99244.56;4954199;28;20035;-71
2021/06/08 05:33:29;;;;;;;59.88;38.63;;;;;;;16.92;98.03;99238.41;4954184;28;20077;-70
2021/06/08 05:35:56;;;;;;;53.63;36.97;;;;;;;16.96;98.08;99245.25;4954010;28;20108;-71
2021/06/08 05:38:36;;;;;;;59.08;37.97;;;;;;;16.91;97.80;99241.94;4953946;28;20057;-70
2021/06/08 05:41:04;;;;;;;59.45;38.33;;;;;;;17.00;97.46;99246.84;4954057;28;20035;-71
2021/06/08 05:43:29;;;;;;;63.08;38.75;;;;;;;16.96;97.98;99250.47;4954115;28;20031;-71
2021/06/08 05:45:55;;;;;;;54.17;36.65;;;;;;;17.14;97.67;99257.66;4953971;28;20396;-71
2021/06/08 05:48:21;;;;;;;55.03;35.50;;;;;;;17.05;97.04;99254.53;4953807;28;20524;-71
2021/06/08 05:50:47;;;;;;;52.17;35.30;;;;;;;17.07;97.43;99258.81;4954097;28;20082;-71
2021/06/08 05:53:16;;;;;;;54.05;37.20;;;;;;;17.07;97.08;99258.81;4954169;28;20034;-71
2021/06/08 05:55:44;;;;;;;56.03;37.72;;;;;;;17.03;97.06;99257.22;4953895;28;20440;-73
2021/06/08 05:58:11;;;;;;;54.67;36.73;;;;;;;17.01;97.60;99253.78;4953791;28;20035;-72
2021/06/08 06:00:37;;;;;;;55.35;37.80;;;;;;;17.04;97.43;99258.06;4953876;28;20059;-73
2021/06/08 06:03:02;;;;;;;60.70;37.55;;;;;;;17.00;97.97;99254.69;4953720;28;20074;-72
2021/06/08 06:05:28;;;;;;;56.17;37.30;;;;;;;17.05;97.21;99250.16;4949706;28;20031;-72
2021/06/08 06:07:54;;;;;;;49.63;35.38;;;;;;;17.24;96.17;99244.25;4947494;28;20074;-72
2021/06/08 06:10:19;;;;;;;50.88;35.13;;;;;;;17.39;95.24;99248.88;4956874;29;20061;-72
2021/06/08 06:12:46;;;;;;;49.03;34.65;;;;;;;17.48;95.13;99254.63;4956367;29;20019;-72
2021/06/08 06:15:12;;;;;;;46.92;33.80;;;;;;;17.75;93.97;99251.03;4957436;28;20094;-72
2021/06/08 06:17:40;;;;;;;48.85;35.65;;;;;;;17.65;93.36;99250.53;4957202;29;20445;-72
2021/06/08 06:20:14;;;;;;;46.45;34.33;;;;;;;17.66;93.32;99247.84;4956817;28;20039;-73
2021/06/08 06:22:40;;;;;;;45.53;32.95;;;;;;;17.69;92.90;99257.31;4956613;29;20497;-73
2021/06/08 06:25:08;;;;;;;48.75;33.97;;;;;;;17.75;92.73;99257.13;4957342;29;20035;-72
2021/06/08 06:27:35;;;;;;;43.42;33.75;;;;;;;17.70;92.56;99259.91;4957264;29;20023;-72
2021/06/08 06:30:02;;;;;;;53.45;33.63;;;;;;;17.76;92.75;99253.59;4957236;28;20468;-73
2021/06/08 06:32:28;;;;;;;41.83;32.63;;;;;;;17.88;92.72;99253.09;4956117;29;20035;-72
2021/06/08 06:34:53;;;;;;;40.05;30.77;;;;;;;17.91;92.11;99252.13;4957070;29;20098;-72
2021/06/08 06:37:24;;;;;;;47.90;33.22;;;;;;;17.97;91.19;99254.50;4956996;28;20020;-72
2021/06/08 06:39:52;;;;;;;43.67;30.55;;;;;;;18.07;91.70;99253.19;4957154;29;20027;-73
2021/06/08 06:42:19;;;;;;;38.40;31.17;;;;;;;18.09;90.00;99256.63;4957168;29;20468;-73
2021/06/08 06:44:45;;;;;;;40.38;30.25;;;;;;;17.98;90.63;99264.91;4955945;29;20051;-72
2021/06/08 06:47:14;;;;;;;42.03;30.85;;;;;;;17.89;91.82;99269.66;4955168;28;20026;-72
2021/06/08 06:49:39;;;;;;;40.70;31.13;;;;;;;17.76;92.18;99273.72;4956403;29;20085;-72
2021/06/08 06:52:05;;;;;;;38.95;31.15;;;;;;;17.91;92.03;99267.88;4956809;29;20027;-73
2021/06/08 06:54:31;;;;;;;41.28;32.30;;;;;;;17.78;92.06;99271.88;4956472;29;20408;-73
2021/06/08 06:56:59;;;;;;;37.70;30.08;;;;;;;17.91;91.47;99273.09;4955811;28;20070;-73
2021/06/08 06:59:25;;;;;;;46.83;31.35;;;;;;;17.72;92.26;99273.78;4956781;28;20101;-73
2021/06/08 07:01:51;;;;;;;39.25;31.33;;;;;;;17.62;93.59;99272.44;4956568;29;20485;-72
2021/06/08 07:04:17;;;;;;;45.72;31.00;;;;;;;17.58;93.75;99270.84;4956724;29;20027;-73
2021/06/08 07:06:45;;;;;;;37.08;29.50;;;;;;;17.58;93.98;99276.09;4955113;28;20023;-73
2021/06/08 07:09:10;;;;;;;40.75;30.35;;;;;;;17.51;93.88;99279.88;4954253;29;20027;-73
2021/06/08 07:11:37;;;;;;;42.45;32.25;;;;;;;17.46;94.08;99276.56;4956490;29;20027;-72
2021/06/08 07:14:03;;;;;;;42.95;32.63;;;;;;;17.40;94.09;99271.53;4956416;29;20035;-73
2021/06/08 07:16:29;;;;;;;38.63;30.33;;;;;;;17.37;95.01;99272.53;4956030;28;20060;-73
2021/06/08 07:18:54;;;;;;;42.10;31.27;;;;;;;17.41;94.91;99268.03;4955248;29;20111;-73
2021/06/08 07:21:22;;;;;;;39.42;31.58;;;;;;;17.41;94.81;99274.13;4955594;28;20023;-72
2021/06/08 07:23:51;;;;;;;42.88;31.63;;;;;;;17.70;93.89;99275.63;4956207;29;20433;-73
2021/06/08 07:26:17;;;;;;;38.28;29.70;;;;;;;17.73;93.61;99282.53;4956144;28;20102;-73
2021/06/08 07:28:44;;;;;;;42.63;30.15;;;;;;;17.71;93.46;99273.88;4956385;29;20122;-73
2021/06/08 07:31:16;;;;;;;39.22;29.58;;;;;;;17.72;92.82;99279.03;4955086;29;20062;-73
2021/06/08 07:33:51;;;;;;;43.47;29.17;;;;;;;17.72;93.65;99263.31;4956235;29;20069;-72
2021/06/08 07:36:27;;;;;;;38.75;29.60;;;;;;;17.88;92.83;99267.97;4955836;28;20028;-73
2021/06/08 07:39:18;;;;;;;34.25;28.67;;;;;;;18.00;91.63;99275.38;4955922;29;20094;-73
2021/06/08 07:41:47;;;;;;;37.42;29.13;;;;;;;18.34;89.62;99271.38;4955208;28;20473;-73
2021/06/08 07:44:23;;;;;;;33.75;26.13;;;;;;;18.31;90.45;99276.72;4955712;29;20039;-73
2021/06/08 07:46:49;;;;;;;36.15;27.77;;;;;;;18.38;89.31;99283.44;4955633;28;20034;-72
2021/06/08 07:49:17;;;;;;;36.75;28.55;;;;;;;18.66;88.36;99272.59;4940092;29;20455;-72
2021/06/08 07:51:44;;;;;;;35.85;27.15;;;;;;;18.83;87.58;99266.66;4955628;29;20034;-71
2021/06/08 07:54:11;;;;;;;36.50;26.38;;;;;;;18.87;87.03;99276.13;4954854;29;20492;-71
2021/06/08 07:56:37;;;;;;;33.90;26.58;;;;;;;18.98;86.84;99273.88;4955360;28;20552;-71
2021/06/08 07:59:03;;;;;;;32.78;25.38;;;;;;;19.20;86.43;99273.78;4955612;29;20031;-71
2021/06/08 08:01:29;;;;;;;30.77;26.40;;;;;;;19.23;84.48;99278.88;4955743;29;20023;-71
2021/06/08 08:03:55;;;;;;;100.47;71.32;;;;;;;19.10;85.52;99275.97;4955483;29;20027;-71
2021/06/08 08:06:23;;;;;;;40.25;27.90;;;;;;;19.19;85.29;99275.53;4953125;28;20031;-70
2021/06/08 08:08:50;;;;;;;33.72;26.25;;;;;;;19.20;84.97;99273.78;4955359;29;20028;-72
2021/06/08 08:11:18;;;;;;;31.70;25.80;;;;;;;19.23;83.17;99279.72;4955549;28;20023;-72
2021/06/08 08:13:49;;;;;;;31.00;24.35;;;;;;;19.14;84.35;99280.13;4955398;29;20391;-72
2021/06/08 08:16:15;;;;;;;33.00;26.08;;;;;;;18.97;85.80;99280.03;4954298;28;20063;-72
2021/06/08 08:18:42;;;;;;;34.95;25.08;;;;;;;19.14;85.04;99277.50;4954109;29;20038;-72
2021/06/08 08:21:10;;;;;;;32.63;24.73;;;;;;;19.30;84.54;99284.72;4955164;29;20021;-72
2021/06/08 08:23:37;;;;;;;30.02;24.63;;;;;;;19.66;82.65;99283.03;4953142;29;20476;-72
2021/06/08 08:26:06;;;;;;;30.23;25.65;;;;;;;19.69;81.37;99282.06;4954998;28;20035;-72
2021/06/08 08:28:35;;;;;;;39.50;27.00;;;;;;;19.65;81.24;99281.34;4954376;29;20034;-72
2021/06/08 08:31:02;;;;;;;;;;;;;;;19.60;81.46;99283.31;4954594;28;20102;-70
2021/06/08 08:33:29;;;;;;;32.58;25.33;;;;;;;19.49;82.56;99288.22;4955274;29;19914;-71
2021/06/08 08:35:55;;;;;;;33.30;25.00;;;;;;;19.54;82.47;99282.75;4954825;28;20473;-71
2021/06/08 08:38:21;;;;;;;31.75;25.25;;;;;;;19.64;82.60;99284.91;4954927;29;20050;-71
2021/06/08 08:40:47;;;;;;;33.42;24.83;;;;;;;19.70;81.31;99284.59;4953922;29;20065;-70
2021/06/08 08:43:13;;;;;;;32.40;24.20;;;;;;;19.81;80.88;99280.59;4954830;29;20370;-71
2021/06/08 08:45:38;;;;;;;33.58;24.65;;;;;;;19.76;81.36;99280.81;4954671;28;20047;-71
2021/06/08 08:48:04;;;;;;;32.80;25.25;;;;;;;19.82;80.99;99282.31;4954616;29;20146;-71
2021/06/08 08:50:30;;;;;;;33.40;24.85;;;;;;;19.73;80.69;99281.00;4954385;28;20078;-74
2021/06/08 08:53:02;;;;;;;33.63;25.15;;;;;;;19.69;80.98;99288.16;4953578;29;20027;-74
2021/06/08 08:55:29;;;;;;;32.95;26.70;;;;;;;19.83;79.93;99281.41;4954698;28;20081;-74
2021/06/08 08:57:57;;;;;;;36.00;26.13;;;;;;;20.17;78.83;99289.38;4954248;29;20023;-74
2021/06/08 09:00:25;;;;;;;34.22;25.90;;;;;;;20.18;78.26;99288.44;4954526;29;20115;-74
2021/06/08 09:03:03;;;;;;;30.83;24.45;;;;;;;20.52;78.41;99286.78;4954304;28;20030;-74
2021/06/08 09:05:34;;;;;;;34.85;25.20;;;;;;;20.81;76.40;99289.72;4953939;28;20432;-74
2021/06/08 09:07:59;;;;;;;53.90;41.60;;;;;;;21.12;76.87;99278.41;4954255;29;20396;-74
2021/06/08 09:10:24;;;;;;;33.28;24.05;;;;;;;21.48;74.67;99281.75;4954468;29;20031;-71
2021/06/08 09:12:50;;;;;;;26.30;23.48;;;;;;;21.14;74.60;99274.78;4954170;29;20432;-71
2021/06/08 09:15:16;;;;;;;30.50;24.85;;;;;;;20.61;76.47;99286.31;4954054;28;20074;-70
2021/06/08 09:17:41;;;;;;;31.05;23.83;;;;;;;20.59;76.59;99284.69;4960505;28;20035;-70
2021/06/08 09:20:10;;;;;;;36.15;26.70;;;;;;;20.62;77.08;99284.53;4954116;29;20493;-74
2021/06/08 09:22:55;;;;;;;32.40;25.08;;;;;;;20.78;77.41;99286.28;4954168;29;20085;-74
2021/06/08 09:28:22;;;;;;;31.85;24.58;;;;;;;21.22;75.01;99285.75;4952979;29;20035;-74
2021/06/08 09:31:07;;;;;;;32.92;25.30;;;;;;;21.11;74.64;99288.09;4953834;29;20129;-70
2021/06/08 09:33:35;;;;;;;29.95;23.77;;;;;;;21.29;74.55;99291.56;4950398;29;20042;-73
2021/06/08 09:36:02;;;;;;;30.13;23.98;;;;;;;21.43;73.18;99288.22;4951901;28;20380;-74
2021/06/08 09:38:57;;;;;;;31.75;25.10;;;;;;;21.49;71.99;99293.16;4950980;29;20035;-74
2021/06/08 09:41:33;;;;;;;33.85;26.15;;;;;;;21.01;73.36;99293.00;4952690;29;20493;-74
2021/06/08 09:44:04;;;;;;;31.08;26.45;;;;;;;20.69;74.91;99292.03;4953318;28;20106;-74
2021/06/08 09:46:44;;;;;;;31.98;25.65;;;;;;;20.93;75.16;99291.69;4953687;28;20027;-73
2021/06/08 09:49:10;;;;;;;31.15;25.30;;;;;;;20.83;75.02;99285.22;4953786;29;20109;-73
2021/06/08 09:51:54;;;;;;;31.92;26.63;;;;;;;20.92;73.36;99282.09;4952486;29;20015;-73
2021/06/08 09:54:32;;;;;;;33.65;28.80;;;;;;;21.39;72.70;99282.25;4953727;29;20105;-73
2021/06/08 09:57:23;;;;;;;34.70;29.08;;;;;;;21.52;71.48;99282.44;4951470;28;20030;-73
2021/06/08 09:59:59;;;;;;;33.45;27.15;;;;;;;21.54;71.07;99280.56;4953406;29;20035;-73
2021/06/08 10:02:39;;;;;;;34.95;27.70;;;;;;;21.45;72.37;99276.63;4951448;29;20054;-74
2021/06/08 10:05:27;;;;;;;36.30;27.58;;;;;;;21.13;72.29;99278.34;4953718;29;20039;-73
2021/06/08 10:08:13;;;;;;;43.45;32.08;;;;;;;21.03;72.76;99279.75;4953555;28;20030;-74
2021/06/08 10:10:46;;;;;;;35.05;28.15;;;;;;;20.79;74.15;99277.47;4953438;28;20110;-74
2021/06/08 10:13:16;;;;;;;37.20;30.02;;;;;;;21.02;72.92;99288.59;4952965;29;20027;-74
2021/06/08 10:15:41;;;;;;;33.65;27.08;;;;;;;21.37;72.63;99284.13;4953195;28;20042;-73
2021/06/08 10:18:08;;;;;;;36.50;28.07;;;;;;;21.97;70.53;99283.44;4953526;29;20024;-74
2021/06/08 10:20:36;;;;;;;30.23;25.48;;;;;;;22.00;70.00;99288.53;4953509;29;20636;-73
2021/06/08 10:23:20;;;;;;;30.10;25.45;;;;;;;22.17;69.36;99291.09;4953505;29;20488;-73
2021/06/08 10:25:47;;;;;;;30.20;25.15;;;;;;;22.28;69.85;99288.69;4952398;28;20026;-73
2021/06/08 10:28:15;;;;;;;31.67;25.60;;;;;;;22.31;69.51;99287.69;4953539;29;20027;-74
2021/06/08 10:30:44;;;;;;;30.73;24.77;;;;;;;22.41;69.82;99288.84;4953928;29;20034;-71
2021/06/08 10:33:10;;;;;;;69.90;56.50;;;;;;;22.91;67.21;99286.81;4953400;29;20046;-71
2021/06/08 10:35:36;;;;;;;24.48;21.52;;;;;;;23.25;65.73;99286.44;4953431;28;20023;-72
2021/06/08 10:38:03;;;;;;;28.38;23.05;;;;;;;24.28;61.83;99283.41;4952083;29;20054;-72
2021/06/08 10:40:29;;;;;;;27.35;22.98;;;;;;;24.40;60.66;99291.50;4953440;28;20035;-72
2021/06/08 10:42:56;;;;;;;31.05;22.58;;;;;;;24.07;62.24;99284.81;4953240;28;20385;-72
2021/06/08 10:45:22;;;;;;;28.73;20.98;;;;;;;24.07;63.81;99279.50;4952752;28;20040;-72
2021/06/08 10:48:02;;;;;;;35.55;23.88;;;;;;;23.63;61.88;99271.75;4952874;29;20034;-71
2021/06/08 10:50:30;;;;;;;27.60;22.48;;;;;;;23.38;64.96;99281.25;4952710;29;20511;-72
2021/06/08 10:52:58;;;;;;;28.83;24.35;;;;;;;22.96;65.03;99279.44;4953187;28;20023;-72
2021/06/08 10:55:43;;;;;;;30.00;24.67;;;;;;;22.80;65.15;99280.34;4954219;28;20038;-72
2021/06/08 10:58:09;;;;;;;33.08;24.00;;;;;;;23.45;63.39;99271.13;4956264;29;20042;-71
2021/06/08 11:00:47;;;;;;;29.58;22.88;;;;;;;24.38;60.38;99277.53;4955232;29;20054;-72
2021/06/08 11:03:12;;;;;;;25.77;22.23;;;;;;;25.01;59.25;99266.16;4956708;28;20605;-72
2021/06/08 11:05:43;;;;;;;27.75;22.65;;;;;;;24.59;60.45;99270.78;4956603;28;20086;-72
2021/06/08 11:08:09;;;;;;;23.73;21.15;;;;;;;24.09;62.80;99269.69;4955186;29;20031;-72
2021/06/08 11:10:42;;;;;;;26.13;21.90;;;;;;;24.53;60.55;99265.91;4956386;29;20089;-72
2021/06/08 11:13:07;;;;;;;29.33;22.38;;;;;;;24.00;61.72;99267.63;4955530;29;20154;-72
2021/06/08 11:15:33;;;;;;;26.10;21.65;;;;;;;23.73;62.47;99265.81;4956166;28;20546;-72
2021/06/08 11:17:58;;;;;;;25.88;22.27;;;;;;;23.59;63.02;99268.44;4956455;29;20043;-72
2021/06/08 11:20:27;;;;;;;26.13;20.80;;;;;;;23.49;64.28;99267.34;4956396;29;20066;-71
2021/06/08 11:23:02;;;;;;;34.05;25.58;;;;;;;23.02;66.46;99264.09;4954369;29;20031;-72
2021/06/08 11:25:31;;;;;;;25.85;21.65;;;;;;;22.88;68.18;99266.69;4947007;28;20027;-73
2021/06/08 11:27:58;;;;;;;31.90;21.17;;;;;;;22.89;67.49;99262.28;4955622;29;20028;-73
2021/06/08 11:30:26;;;;;;;26.80;21.95;;;;;;;23.00;66.59;99265.94;4949675;29;20539;-73
2021/06/08 11:32:53;;;;;;;25.13;21.27;;;;;;;22.98;67.18;99262.56;4955765;29;20468;-74
2021/06/08 11:35:30;;;;;;;25.40;20.45;;;;;;;22.97;66.69;99265.31;4946557;28;20119;-73
2021/06/08 11:38:02;;;;;;;30.67;20.58;;;;;;;23.45;64.53;99260.53;4947249;29;20027;-74
2021/06/08 11:40:40;;;;;;;23.83;20.65;;;;;;;23.84;63.65;99252.75;4946096;28;20653;-74
2021/06/08 11:43:10;;;;;;;25.83;19.92;;;;;;;24.19;63.06;99262.81;4942341;29;20089;-74
2021/06/08 11:45:41;;;;;;;26.48;20.50;;;;;;;24.70;61.37;99252.34;4941976;28;20061;-74
2021/06/08 11:48:32;;;;;;;24.98;19.67;;;;;;;25.62;57.47;99252.03;4942982;29;20032;-73
2021/06/08 11:50:58;;;;;;;26.48;19.85;;;;;;;26.39;56.63;99241.94;4946637;29;20023;-75
2021/06/08 11:53:24;;;;;;;23.77;18.98;;;;;;;26.86;54.32;99234.81;4942633;28;20039;-74
2021/06/08 11:56:07;;;;;;;27.05;20.58;;;;;;;26.16;54.83;99234.88;4945620;28;21070;-71
2021/06/08 11:58:35;;;;;;;21.25;17.17;;;;;;;25.68;57.30;99234.84;4942078;29;20153;-70
2021/06/08 12:01:02;;;;;;;19.13;17.20;;;;;;;25.51;56.62;99232.56;4946559;28;20094;-70
2021/06/08 12:03:30;;;;;;;18.75;16.77;;;;;;;25.33;58.55;99224.94;4947236;29;20035;-71
2021/06/08 12:05:56;;;;;;;22.42;18.60;;;;;;;25.12;57.81;99227.31;4943778;28;20493;-71
2021/06/08 12:08:27;;;;;;;20.08;17.52;;;;;;;24.96;59.27;99228.50;4940515;29;20046;-70
2021/06/08 12:10:53;;;;;;;25.33;17.70;;;;;;;24.84;58.59;99217.78;4942175;28;20588;-70
2021/06/08 12:13:28;;;;;;;19.55;16.92;;;;;;;25.52;57.13;99223.63;4947019;28;20082;-70
2021/06/08 12:15:54;;;;;;;23.50;18.40;;;;;;;25.04;58.20;99215.53;4946410;28;20037;-72
2021/06/08 12:18:27;;;;;;;20.90;18.42;;;;;;;26.04;55.97;99203.91;4943186;29;20115;-72
2021/06/08 12:20:53;;;;;;;18.05;16.25;;;;;;;26.85;53.08;99200.38;4945644;28;20303;-72
2021/06/08 12:23:29;;;;;;;19.00;16.20;;;;;;;26.28;54.39;99212.66;4941165;28;20038;-72
2021/06/08 12:26:04;;;;;;;19.17;14.55;;;;;;;27.39;53.99;99200.47;4941430;28;20488;-72
2021/06/08 12:28:29;;;;;;;17.67;15.65;;;;;;;27.08;51.95;99201.25;4943343;28;20039;-72
2021/06/08 12:31:10;;;;;;;17.40;14.55;;;;;;;25.33;55.87;99201.06;4945360;29;20055;-72
2021/06/08 12:33:36;;;;;;;16.08;14.43;;;;;;;24.03;57.88;99198.56;4945638;29;20042;-72
2021/06/08 12:36:06;;;;;;;18.05;14.52;;;;;;;23.69;60.03;99203.47;4946244;28;20136;-72
2021/06/08 12:38:32;;;;;;;16.50;14.80;;;;;;;23.22;60.82;99196.75;4944861;28;20038;-72
2021/06/08 12:41:10;;;;;;;15.95;13.57;;;;;;;24.45;57.71;99189.56;4941822;28;20099;-72
2021/06/08 12:43:45;;;;;;;17.35;13.68;;;;;;;25.09;54.30;99189.56;4946353;29;20481;-72
2021/06/08 12:46:11;;;;;;;19.75;13.95;;;;;;;25.37;54.59;99191.94;4945080;29;20108;-71
2021/06/08 12:48:36;;;;;;;21.20;15.70;;;;;;;25.30;56.81;99187.19;4944921;28;20485;-71
2021/06/08 12:51:14;;;;;;;17.00;15.23;;;;;;;25.41;56.75;99178.44;4945385;28;20031;-71
2021/06/08 12:53:42;;;;;;;20.30;16.00;;;;;;;25.04;57.30;99175.75;4946044;29;20087;-71
2021/06/08 12:56:11;;;;;;;20.02;14.82;;;;;;;24.56;58.00;99175.59;4939277;29;20035;-71
2021/06/08 12:58:37;;;;;;;16.83;15.23;;;;;;;23.48;58.71;99175.72;4945614;29;20030;-71
2021/06/08 13:01:02;;;;;;;17.02;15.00;;;;;;;23.99;59.23;99174.13;4902446;28;20071;-71
2021/06/08 13:03:28;;;;;;;18.00;15.25;;;;;;;23.98;62.72;99174.22;4962934;28;20059;-71
2021/06/08 13:05:54;;;;;;;16.35;14.57;;;;;;;24.58;59.98;99165.75;4961016;28;20111;-71
2021/06/08 13:08:19;;;;;;;17.25;15.38;;;;;;;25.06;57.12;99163.25;4960196;28;20447;-71
2021/06/08 13:10:46;;;;;;;17.42;14.70;;;;;;;25.51;57.11;99163.56;4962939;28;20027;-71
2021/06/08 13:13:15;;;;;;;20.33;17.50;;;;;;;24.08;60.33;99172.66;4963918;28;20567;-71
2021/06/08 13:15:40;;;;;;;20.40;15.85;;;;;;;25.03;59.57;99156.34;4964072;28;20069;-71
2021/06/08 13:18:11;;;;;;;23.37;16.90;;;;;;;25.08;58.42;99166.66;4959709;28;20030;-71
2021/06/08 13:20:57;;;;;;;18.73;16.80;;;;;;;25.36;57.89;99166.38;4957929;28;20834;-71
2021/06/08 13:23:31;;;;;;;23.10;15.63;;;;;;;26.02;56.71;99158.03;4962075;28;20509;-71
2021/06/08 13:26:08;;;;;;;20.20;15.18;;;;;;;26.30;55.82;99149.66;4962508;28;20117;-72
2021/06/08 13:28:36;;;;;;;18.95;15.90;;;;;;;26.10;56.45;99155.63;4960328;28;20062;-71
2021/06/08 13:31:16;;;;;;;18.50;15.65;;;;;;;26.03;55.86;99152.59;4959030;28;20110;-71
2021/06/08 13:33:44;;;;;;;21.30;16.17;;;;;;;25.36;57.89;99145.13;4964307;28;20035;-71
2021/06/08 13:36:21;;;;;;;21.20;15.63;;;;;;;24.64;59.89;99157.34;4961992;28;20037;-71
2021/06/08 13:38:46;;;;;;;17.58;15.80;;;;;;;25.17;58.77;99144.78;4958475;28;20022;-71
2021/06/08 13:41:12;;;;;;;24.15;15.93;;;;;;;25.50;57.18;99145.94;4963036;28;20023;-71
2021/06/08 13:43:46;;;;;;;19.52;14.20;;;;;;;25.85;57.17;99140.69;4963565;28;20066;-72
2021/06/08 13:46:13;;;;;;;15.77;13.82;;;;;;;25.53;56.65;99146.56;4964346;28;20037;-71
2021/06/08 13:48:48;;;;;;;30.55;25.73;;;;;;;25.61;55.80;99149.50;4960092;28;20038;-71
2021/06/08 13:51:24;;;;;;;21.65;14.18;;;;;;;25.27;55.74;99148.47;4964441;28;20118;-71
2021/06/08 13:54:01;;;;;;;17.05;15.25;;;;;;;25.49;55.89;99149.56;4960774;28;20046;-71
2021/06/08 13:56:35;;;;;;;19.52;13.57;;;;;;;25.87;56.54;99138.78;4960367;28;20041;-72
2021/06/08 14:02:01;;;;;;;16.02;13.43;;;;;;;25.86;57.30;99137.91;4953256;28;20061;-71
2021/06/08 14:06:55;;;;;;;17.83;13.30;;;;;;;25.55;57.90;99141.97;5113796;27;20220;-72
2021/06/08 14:09:23;;;;;;;15.05;12.77;;;;;;;24.92;56.94;99142.16;5108955;28;20158;-71
2021/06/08 14:11:51;;;;;;;17.27;13.30;;;;;;;24.52;59.19;99132.56;5108763;28;20664;-70
2021/06/08 14:14:30;;;;;;;15.70;14.18;;;;;;;24.51;59.97;99136.16;5108605;28;20028;-71
2021/06/08 14:17:12;;;;;;;15.05;12.45;;;;;;;25.67;55.30;99136.72;5107500;27;20028;-70
2021/06/08 14:19:38;;;;;;;13.63;12.23;;;;;;;26.00;54.24;99139.53;5107477;28;20032;-70
2021/06/08 14:22:04;;;;;;;13.90;12.40;;;;;;;24.23;57.55;99126.59;5108534;27;20646;-70
2021/06/08 14:24:30;;;;;;;15.57;12.40;;;;;;;25.34;55.62;99123.19;5108448;28;20023;-70
2021/06/08 14:26:56;;;;;;;17.55;12.93;;;;;;;25.07;55.93;99117.22;5108188;27;20031;-71
2021/06/08 14:29:22;;;;;;;12.48;10.88;;;;;;;25.94;56.29;99117.91;5107698;28;20481;-70
2021/06/08 14:31:48;;;;;;;14.18;11.55;;;;;;;26.32;56.16;99118.47;5108047;28;20028;-70
2021/06/08 14:34:13;;;;;;;13.65;11.18;;;;;;;26.65;52.24;99114.19;5108292;27;20031;-70
2021/06/08 14:36:38;;;;;;;15.45;10.75;;;;;;;26.46;53.22;99119.25;5108286;27;20671;-70
2021/06/08 14:39:04;;;;;;;15.88;11.07;;;;;;;24.98;57.95;99123.16;5108069;28;20124;-70
2021/06/08 14:41:30;;;;;;;16.42;12.27;;;;;;;25.18;56.72;99133.22;5106910;28;20028;-70
2021/06/08 14:43:57;;;;;;;14.98;11.75;;;;;;;26.13;53.69;99119.06;5107870;28;20172;-70
2021/06/08 14:46:26;;;;;;;16.27;12.40;;;;;;;25.44;55.23;99135.78;5107872;28;20039;-70
2021/06/08 14:48:52;;;;;;;13.45;10.55;;;;;;;26.43;53.68;99116.81;5108001;28;20032;-71
2021/06/08 14:51:17;;;;;;;12.40;10.80;;;;;;;27.00;51.17;99118.50;5107854;28;20552;-70
2021/06/08 14:53:43;;;;;;;13.80;11.43;;;;;;;25.48;56.11;99126.63;5106890;28;20093;-70
2021/06/08 14:56:09;;;;;;;13.25;11.95;;;;;;;25.07;56.57;99111.94;5107489;28;20053;-72
2021/06/08 14:58:34;;;;;;;15.50;13.68;;;;;;;24.55;58.02;99121.75;5107753;28;20031;-70
2021/06/08 15:01:00;;;;;;;18.55;12.45;;;;;;;23.60;61.92;99129.94;5107865;28;20055;-70
2021/06/08 15:03:25;;;;;;;14.00;12.32;;;;;;;23.66;61.96;99119.00;5106960;28;20060;-70
2021/06/08 15:05:51;;;;;;;14.50;11.32;;;;;;;23.82;61.64;99119.66;5105744;27;20032;-70
2021/06/08 15:08:17;;;;;;;14.02;12.38;;;;;;;23.25;62.54;99111.91;5105532;28;20119;-71
2021/06/08 15:10:42;;;;;;;14.27;12.50;;;;;;;23.48;62.97;99114.88;5105648;28;20042;-71
2021/06/08 15:13:07;;;;;;;16.60;12.27;;;;;;;23.02;65.60;99104.63;5105676;27;21022;-71
2021/06/08 15:15:33;;;;;;;23.58;15.88;;;;;;;22.25;69.36;99114.66;5105304;28;20031;-71
2021/06/08 15:17:58;;;;;;;23.27;15.25;;;;;;;22.09;72.46;99111.19;5094497;28;20027;-71
2021/06/08 15:20:24;;;;;;;20.33;15.02;;;;;;;22.48;71.34;99115.00;5093693;28;20027;-71
2021/06/08 15:22:49;;;;;;;19.92;15.68;;;;;;;22.41;71.85;99124.28;5093414;28;20492;-71
2021/06/08 15:25:15;;;;;;;18.45;15.38;;;;;;;22.21;72.62;99123.69;5093538;28;20028;-71
2021/06/08 15:27:42;;;;;;;16.60;13.85;;;;;;;22.29;73.22;99121.44;5093167;28;20028;-71
2021/06/08 15:30:08;;;;;;;17.33;15.50;;;;;;;22.00;73.24;99135.47;5093780;28;20645;-71
2021/06/08 15:32:33;;;;;;;17.38;15.23;;;;;;;21.64;74.31;99141.97;5092850;28;20377;-72
2021/06/08 15:34:59;;;;;;;17.83;15.93;;;;;;;21.65;74.94;99140.16;5091929;27;20028;-71
2021/06/08 15:37:27;;;;;;;22.23;16.08;;;;;;;21.74;75.97;99148.41;5092526;28;20814;-71
2021/06/08 15:39:53;;;;;;;21.77;16.13;;;;;;;21.68;76.11;99148.75;5093131;28;20047;-71
2021/06/08 15:42:18;;;;;;;17.88;15.93;;;;;;;21.68;76.53;99140.84;5093389;28;20024;-70
2021/06/08 15:44:43;;;;;;;21.20;17.13;;;;;;;21.58;78.18;99139.69;5093229;28;20138;-70
2021/06/08 15:47:10;;;;;;;20.52;17.83;;;;;;;21.09;82.11;99144.19;5093300;27;20051;-71
2021/06/08 15:49:36;;;;;;;24.27;18.95;;;;;;;20.79;84.30;99144.91;5093165;28;20111;-71